sensor_id;sensor_type;location;lat;lon;timestamp;P1;durP1;ratioP1;P2;durP2;ratioP2
15699;SDS011;7950;42.744;23.174;2022-12-31T00:02:09;27.77;;;17.80;;
15699;SDS011;7950;42.744;23.174;2022-12-31T00:04:47;25.60;;;17.90;;
15699;SDS011;7950;42.744;23.174;2022-12-31T00:07:16;26.53;;;17.97;;
15699;SDS011;7950;42.744;23.174;2022-12-31T00:09:45;26.23;;;17.03;;
15699;SDS011;7950;42.744;23.174;2022-12-31T00:12:13;31.87;;;20.17;;
15699;SDS011;7950;42.744;23.174;2022-12-31T00:14:42;38.60;;;22.03;;
15699;SDS011;7950;42.744;23.174;2022-12-31T00:17:13;40.80;;;24.63;;
15699;SDS011;7950;42.744;23.174;2022-12-31T00:19:41;35.77;;;21.43;;
15699;SDS011;7950;42.744;23.174;2022-12-31T00:22:10;30.17;;;20.07;;
15699;SDS011;7950;42.744;23.174;2022-12-31T00:24:38;27.07;;;17.80;;
15699;SDS011;7950;42.744;23.174;2022-12-31T00:30:13;27.23;;;17.10;;
15699;SDS011;7950;42.744;23.174;2022-12-31T00:35:31;23.60;;;15.47;;
15699;SDS011;7950;42.744;23.174;2022-12-31T00:38:01;24.10;;;14.83;;
15699;SDS011;7950;42.744;23.174;2022-12-31T00:43:24;23.53;;;13.43;;
15699;SDS011;7950;42.744;23.174;2022-12-31T00:45:52;20.17;;;13.17;;
15699;SDS011;7950;42.744;23.174;2022-12-31T00:48:23;20.17;;;13.57;;
15699;SDS011;7950;42.744;23.174;2022-12-31T00:50:52;20.03;;;11.73;;
15699;SDS011;7950;42.744;23.174;2022-12-31T00:53:23;16.83;;;10.50;;
15699;SDS011;7950;42.744;23.174;2022-12-31T00:55:57;14.17;;;10.40;;
15699;SDS011;7950;42.744;23.174;2022-12-31T00:58:27;18.67;;;10.80;;
15699;SDS011;7950;42.744;23.174;2022-12-31T01:00:56;13.07;;;9.73;;
15699;SDS011;7950;42.744;23.174;2022-12-31T01:03:26;17.70;;;11.50;;
15699;SDS011;7950;42.744;23.174;2022-12-31T01:09:13;52.77;;;31.13;;
15699;SDS011;7950;42.744;23.174;2022-12-31T01:11:42;49.60;;;30.70;;
15699;SDS011;7950;42.744;23.174;2022-12-31T01:14:11;46.17;;;30.07;;
15699;SDS011;7950;42.744;23.174;2022-12-31T01:16:43;46.30;;;29.37;;
15699;SDS011;7950;42.744;23.174;2022-12-31T01:19:16;46.13;;;29.00;;
15699;SDS011;7950;42.744;23.174;2022-12-31T01:24:40;45.00;;;29.23;;
15699;SDS011;7950;42.744;23.174;2022-12-31T01:27:09;62.00;;;34.87;;
15699;SDS011;7950;42.744;23.174;2022-12-31T01:29:37;84.37;;;41.10;;
15699;SDS011;7950;42.744;23.174;2022-12-31T01:32:06;75.30;;;40.67;;
15699;SDS011;7950;42.744;23.174;2022-12-31T01:34:36;48.90;;;31.13;;
15699;SDS011;7950;42.744;23.174;2022-12-31T01:37:04;53.03;;;29.33;;
15699;SDS011;7950;42.744;23.174;2022-12-31T01:39:33;48.40;;;28.73;;
15699;SDS011;7950;42.744;23.174;2022-12-31T01:42:02;56.00;;;34.30;;
15699;SDS011;7950;42.744;23.174;2022-12-31T01:44:47;49.57;;;31.97;;
15699;SDS011;7950;42.744;23.174;2022-12-31T01:47:23;42.60;;;28.40;;
15699;SDS011;7950;42.744;23.174;2022-12-31T01:50:04;46.10;;;26.77;;
15699;SDS011;7950;42.744;23.174;2022-12-31T01:52:37;41.30;;;27.07;;
15699;SDS011;7950;42.744;23.174;2022-12-31T01:55:11;38.10;;;25.27;;
15699;SDS011;7950;42.744;23.174;2022-12-31T01:57:43;44.97;;;27.30;;
15699;SDS011;7950;42.744;23.174;2022-12-31T02:00:14;43.97;;;27.27;;
15699;SDS011;7950;42.744;23.174;2022-12-31T02:02:43;42.87;;;27.37;;
15699;SDS011;7950;42.744;23.174;2022-12-31T02:05:17;38.27;;;24.97;;
15699;SDS011;7950;42.744;23.174;2022-12-31T02:07:50;39.30;;;25.73;;
15699;SDS011;7950;42.744;23.174;2022-12-31T02:10:21;39.70;;;24.20;;
15699;SDS011;7950;42.744;23.174;2022-12-31T02:12:49;33.70;;;23.37;;
15699;SDS011;7950;42.744;23.174;2022-12-31T02:15:20;36.53;;;23.93;;
15699;SDS011;7950;42.744;23.174;2022-12-31T02:17:56;33.50;;;22.53;;
15699;SDS011;7950;42.744;23.174;2022-12-31T02:26:36;39.17;;;24.30;;
15699;SDS011;7950;42.744;23.174;2022-12-31T02:29:25;47.80;;;29.03;;
15699;SDS011;7950;42.744;23.174;2022-12-31T02:32:30;34.93;;;23.27;;
15699;SDS011;7950;42.744;23.174;2022-12-31T02:35:06;35.67;;;21.70;;
15699;SDS011;7950;42.744;23.174;2022-12-31T02:37:37;34.07;;;20.30;;
15699;SDS011;7950;42.744;23.174;2022-12-31T02:40:09;33.60;;;20.33;;
15699;SDS011;7950;42.744;23.174;2022-12-31T02:42:41;30.17;;;19.53;;
15699;SDS011;7950;42.744;23.174;2022-12-31T02:45:17;27.10;;;18.47;;
15699;SDS011;7950;42.744;23.174;2022-12-31T02:47:54;31.37;;;18.07;;
15699;SDS011;7950;42.744;23.174;2022-12-31T02:50:35;32.63;;;19.33;;
15699;SDS011;7950;42.744;23.174;2022-12-31T02:56:20;34.13;;;20.10;;
15699;SDS011;7950;42.744;23.174;2022-12-31T03:02:37;35.07;;;19.93;;
15699;SDS011;7950;42.744;23.174;2022-12-31T03:05:10;36.43;;;21.73;;
15699;SDS011;7950;42.744;23.174;2022-12-31T03:07:41;29.57;;;20.20;;
15699;SDS011;7950;42.744;23.174;2022-12-31T03:10:12;31.37;;;19.67;;
15699;SDS011;7950;42.744;23.174;2022-12-31T03:12:41;29.13;;;17.80;;
15699;SDS011;7950;42.744;23.174;2022-12-31T03:15:15;27.93;;;17.80;;
15699;SDS011;7950;42.744;23.174;2022-12-31T03:17:49;27.73;;;16.70;;
15699;SDS011;7950;42.744;23.174;2022-12-31T03:20:23;25.57;;;16.10;;
15699;SDS011;7950;42.744;23.174;2022-12-31T03:23:12;23.13;;;16.00;;
15699;SDS011;7950;42.744;23.174;2022-12-31T03:25:42;26.87;;;15.73;;
15699;SDS011;7950;42.744;23.174;2022-12-31T03:28:11;23.23;;;14.53;;
15699;SDS011;7950;42.744;23.174;2022-12-31T03:30:43;22.63;;;14.17;;
15699;SDS011;7950;42.744;23.174;2022-12-31T03:33:13;23.80;;;13.70;;
15699;SDS011;7950;42.744;23.174;2022-12-31T03:35:44;18.17;;;11.83;;
15699;SDS011;7950;42.744;23.174;2022-12-31T03:38:14;19.47;;;12.17;;
15699;SDS011;7950;42.744;23.174;2022-12-31T03:40:45;21.63;;;13.07;;
15699;SDS011;7950;42.744;23.174;2022-12-31T03:43:15;22.80;;;13.87;;
15699;SDS011;7950;42.744;23.174;2022-12-31T03:45:46;26.77;;;17.40;;
15699;SDS011;7950;42.744;23.174;2022-12-31T03:48:15;20.70;;;12.80;;
15699;SDS011;7950;42.744;23.174;2022-12-31T03:53:39;17.60;;;11.80;;
15699;SDS011;7950;42.744;23.174;2022-12-31T03:56:08;20.27;;;12.97;;
15699;SDS011;7950;42.744;23.174;2022-12-31T03:58:37;22.13;;;13.33;;
15699;SDS011;7950;42.744;23.174;2022-12-31T04:01:05;21.03;;;12.43;;
15699;SDS011;7950;42.744;23.174;2022-12-31T04:03:34;22.47;;;14.47;;
15699;SDS011;7950;42.744;23.174;2022-12-31T04:06:03;28.00;;;15.03;;
15699;SDS011;7950;42.744;23.174;2022-12-31T04:08:46;22.80;;;15.07;;
15699;SDS011;7950;42.744;23.174;2022-12-31T04:14:08;28.53;;;17.77;;
15699;SDS011;7950;42.744;23.174;2022-12-31T04:16:37;37.27;;;21.93;;
15699;SDS011;7950;42.744;23.174;2022-12-31T04:19:06;30.30;;;18.83;;
15699;SDS011;7950;42.744;23.174;2022-12-31T04:21:35;24.97;;;16.60;;
15699;SDS011;7950;42.744;23.174;2022-12-31T04:24:05;26.93;;;17.03;;
15699;SDS011;7950;42.744;23.174;2022-12-31T04:26:35;29.13;;;16.80;;
15699;SDS011;7950;42.744;23.174;2022-12-31T04:29:04;21.23;;;13.30;;
15699;SDS011;7950;42.744;23.174;2022-12-31T04:31:33;22.47;;;12.17;;
15699;SDS011;7950;42.744;23.174;2022-12-31T04:34:02;19.23;;;11.07;;
15699;SDS011;7950;42.744;23.174;2022-12-31T04:36:31;21.53;;;12.07;;
15699;SDS011;7950;42.744;23.174;2022-12-31T04:38:59;15.37;;;9.73;;
15699;SDS011;7950;42.744;23.174;2022-12-31T04:41:30;19.80;;;11.53;;
15699;SDS011;7950;42.744;23.174;2022-12-31T04:43:58;15.20;;;10.17;;
15699;SDS011;7950;42.744;23.174;2022-12-31T04:46:28;16.67;;;11.20;;
15699;SDS011;7950;42.744;23.174;2022-12-31T04:48:58;15.73;;;10.30;;
15699;SDS011;7950;42.744;23.174;2022-12-31T04:51:27;14.87;;;10.07;;
15699;SDS011;7950;42.744;23.174;2022-12-31T04:53:57;19.47;;;10.60;;
15699;SDS011;7950;42.744;23.174;2022-12-31T04:56:26;15.67;;;10.10;;
15699;SDS011;7950;42.744;23.174;2022-12-31T04:58:57;15.17;;;9.77;;
15699;SDS011;7950;42.744;23.174;2022-12-31T05:01:26;16.33;;;10.47;;
15699;SDS011;7950;42.744;23.174;2022-12-31T05:03:55;16.83;;;11.30;;
15699;SDS011;7950;42.744;23.174;2022-12-31T05:06:24;15.47;;;9.83;;
15699;SDS011;7950;42.744;23.174;2022-12-31T05:08:53;15.13;;;9.23;;
15699;SDS011;7950;42.744;23.174;2022-12-31T05:11:21;15.57;;;10.07;;
15699;SDS011;7950;42.744;23.174;2022-12-31T05:13:53;14.60;;;8.80;;
15699;SDS011;7950;42.744;23.174;2022-12-31T05:16:23;18.03;;;10.07;;
15699;SDS011;7950;42.744;23.174;2022-12-31T05:18:52;15.53;;;8.97;;
15699;SDS011;7950;42.744;23.174;2022-12-31T05:21:21;15.77;;;10.13;;
15699;SDS011;7950;42.744;23.174;2022-12-31T05:23:49;17.97;;;10.63;;
15699;SDS011;7950;42.744;23.174;2022-12-31T05:26:18;16.77;;;10.80;;
15699;SDS011;7950;42.744;23.174;2022-12-31T05:28:47;18.87;;;11.07;;
15699;SDS011;7950;42.744;23.174;2022-12-31T05:31:15;16.97;;;10.23;;
15699;SDS011;7950;42.744;23.174;2022-12-31T05:33:46;18.47;;;10.90;;
15699;SDS011;7950;42.744;23.174;2022-12-31T05:36:14;17.97;;;11.33;;
15699;SDS011;7950;42.744;23.174;2022-12-31T05:38:43;20.03;;;12.57;;
15699;SDS011;7950;42.744;23.174;2022-12-31T05:41:12;19.70;;;11.57;;
15699;SDS011;7950;42.744;23.174;2022-12-31T05:43:40;19.20;;;12.00;;
15699;SDS011;7950;42.744;23.174;2022-12-31T05:46:09;14.63;;;10.23;;
15699;SDS011;7950;42.744;23.174;2022-12-31T05:48:38;15.03;;;9.43;;
15699;SDS011;7950;42.744;23.174;2022-12-31T05:51:08;13.17;;;8.73;;
15699;SDS011;7950;42.744;23.174;2022-12-31T05:53:37;15.50;;;9.27;;
15699;SDS011;7950;42.744;23.174;2022-12-31T05:56:05;16.47;;;9.93;;
15699;SDS011;7950;42.744;23.174;2022-12-31T05:58:34;14.50;;;9.50;;
15699;SDS011;7950;42.744;23.174;2022-12-31T06:01:03;15.03;;;9.80;;
15699;SDS011;7950;42.744;23.174;2022-12-31T06:03:32;14.40;;;9.73;;
15699;SDS011;7950;42.744;23.174;2022-12-31T06:06:00;17.20;;;10.67;;
15699;SDS011;7950;42.744;23.174;2022-12-31T06:08:31;16.07;;;10.60;;
15699;SDS011;7950;42.744;23.174;2022-12-31T06:10:59;20.67;;;13.33;;
15699;SDS011;7950;42.744;23.174;2022-12-31T06:13:47;21.63;;;14.40;;
15699;SDS011;7950;42.744;23.174;2022-12-31T06:16:16;18.07;;;11.40;;
15699;SDS011;7950;42.744;23.174;2022-12-31T06:18:45;23.10;;;15.23;;
15699;SDS011;7950;42.744;23.174;2022-12-31T06:21:17;28.43;;;17.63;;
15699;SDS011;7950;42.744;23.174;2022-12-31T06:23:48;37.23;;;21.40;;
15699;SDS011;7950;42.744;23.174;2022-12-31T06:26:17;26.90;;;18.67;;
15699;SDS011;7950;42.744;23.174;2022-12-31T06:28:45;25.60;;;15.83;;
15699;SDS011;7950;42.744;23.174;2022-12-31T06:31:14;30.50;;;18.90;;
15699;SDS011;7950;42.744;23.174;2022-12-31T06:33:43;30.40;;;21.77;;
15699;SDS011;7950;42.744;23.174;2022-12-31T06:39:09;20.87;;;13.13;;
15699;SDS011;7950;42.744;23.174;2022-12-31T06:41:37;18.63;;;12.73;;
15699;SDS011;7950;42.744;23.174;2022-12-31T06:44:06;20.27;;;12.40;;
15699;SDS011;7950;42.744;23.174;2022-12-31T06:46:35;18.80;;;14.17;;
15699;SDS011;7950;42.744;23.174;2022-12-31T06:49:04;19.40;;;14.20;;
15699;SDS011;7950;42.744;23.174;2022-12-31T06:51:33;20.63;;;13.77;;
15699;SDS011;7950;42.744;23.174;2022-12-31T06:54:01;19.90;;;13.23;;
15699;SDS011;7950;42.744;23.174;2022-12-31T06:56:32;22.53;;;14.03;;
15699;SDS011;7950;42.744;23.174;2022-12-31T06:59:02;18.50;;;12.83;;
15699;SDS011;7950;42.744;23.174;2022-12-31T07:02:13;20.50;;;14.47;;
15699;SDS011;7950;42.744;23.174;2022-12-31T07:05:05;27.63;;;16.87;;
15699;SDS011;7950;42.744;23.174;2022-12-31T07:07:48;22.93;;;14.57;;
15699;SDS011;7950;42.744;23.174;2022-12-31T07:10:27;21.07;;;15.50;;
15699;SDS011;7950;42.744;23.174;2022-12-31T07:16:16;21.77;;;15.63;;
15699;SDS011;7950;42.744;23.174;2022-12-31T07:19:05;28.83;;;21.17;;
15699;SDS011;7950;42.744;23.174;2022-12-31T07:21:52;29.43;;;21.83;;
15699;SDS011;7950;42.744;23.174;2022-12-31T07:24:23;29.03;;;19.43;;
15699;SDS011;7950;42.744;23.174;2022-12-31T07:26:59;28.37;;;19.43;;
15699;SDS011;7950;42.744;23.174;2022-12-31T07:29:55;32.47;;;22.67;;
15699;SDS011;7950;42.744;23.174;2022-12-31T07:32:35;33.83;;;22.17;;
15699;SDS011;7950;42.744;23.174;2022-12-31T07:35:20;32.10;;;20.43;;
15699;SDS011;7950;42.744;23.174;2022-12-31T07:38:01;42.00;;;24.17;;
15699;SDS011;7950;42.744;23.174;2022-12-31T07:40:49;36.80;;;23.57;;
15699;SDS011;7950;42.744;23.174;2022-12-31T07:43:26;35.77;;;22.70;;
15699;SDS011;7950;42.744;23.174;2022-12-31T07:48:39;30.90;;;20.93;;
15699;SDS011;7950;42.744;23.174;2022-12-31T07:51:08;38.13;;;26.67;;
15699;SDS011;7950;42.744;23.174;2022-12-31T07:53:38;37.07;;;24.07;;
15699;SDS011;7950;42.744;23.174;2022-12-31T07:56:07;32.33;;;22.90;;
15699;SDS011;7950;42.744;23.174;2022-12-31T07:58:42;30.43;;;20.37;;
15699;SDS011;7950;42.744;23.174;2022-12-31T08:01:32;25.17;;;16.97;;
15699;SDS011;7950;42.744;23.174;2022-12-31T08:04:06;23.23;;;16.80;;
15699;SDS011;7950;42.744;23.174;2022-12-31T08:06:40;26.37;;;18.33;;
15699;SDS011;7950;42.744;23.174;2022-12-31T08:09:23;28.47;;;19.03;;
15699;SDS011;7950;42.744;23.174;2022-12-31T08:12:00;27.37;;;18.13;;
15699;SDS011;7950;42.744;23.174;2022-12-31T08:14:29;38.47;;;26.47;;
15699;SDS011;7950;42.744;23.174;2022-12-31T08:17:02;31.17;;;20.23;;
15699;SDS011;7950;42.744;23.174;2022-12-31T08:19:32;31.43;;;22.77;;
15699;SDS011;7950;42.744;23.174;2022-12-31T08:22:10;30.43;;;21.03;;
15699;SDS011;7950;42.744;23.174;2022-12-31T08:24:53;30.30;;;20.27;;
15699;SDS011;7950;42.744;23.174;2022-12-31T08:27:37;25.80;;;18.70;;
15699;SDS011;7950;42.744;23.174;2022-12-31T08:30:13;35.10;;;24.73;;
15699;SDS011;7950;42.744;23.174;2022-12-31T08:32:47;28.93;;;21.07;;
15699;SDS011;7950;42.744;23.174;2022-12-31T08:36:07;28.20;;;20.93;;
15699;SDS011;7950;42.744;23.174;2022-12-31T08:38:42;31.37;;;22.70;;
15699;SDS011;7950;42.744;23.174;2022-12-31T08:41:21;29.33;;;21.00;;
15699;SDS011;7950;42.744;23.174;2022-12-31T08:43:58;22.80;;;17.70;;
15699;SDS011;7950;42.744;23.174;2022-12-31T08:49:45;22.07;;;15.30;;
15699;SDS011;7950;42.744;23.174;2022-12-31T08:52:15;21.47;;;13.43;;
15699;SDS011;7950;42.744;23.174;2022-12-31T08:54:50;20.50;;;14.63;;
15699;SDS011;7950;42.744;23.174;2022-12-31T08:57:21;19.27;;;14.00;;
15699;SDS011;7950;42.744;23.174;2022-12-31T09:03:03;18.73;;;13.83;;
15699;SDS011;7950;42.744;23.174;2022-12-31T09:05:54;19.60;;;13.87;;
15699;SDS011;7950;42.744;23.174;2022-12-31T09:08:32;23.87;;;15.10;;
15699;SDS011;7950;42.744;23.174;2022-12-31T09:11:09;23.23;;;16.17;;
15699;SDS011;7950;42.744;23.174;2022-12-31T09:16:47;19.83;;;14.60;;
15699;SDS011;7950;42.744;23.174;2022-12-31T09:22:20;31.40;;;22.70;;
15699;SDS011;7950;42.744;23.174;2022-12-31T09:24:49;33.33;;;26.07;;
15699;SDS011;7950;42.744;23.174;2022-12-31T09:27:20;24.50;;;19.17;;
15699;SDS011;7950;42.744;23.174;2022-12-31T09:29:55;30.83;;;22.87;;
15699;SDS011;7950;42.744;23.174;2022-12-31T09:32:32;29.73;;;23.17;;
15699;SDS011;7950;42.744;23.174;2022-12-31T09:35:11;30.27;;;22.70;;
15699;SDS011;7950;42.744;23.174;2022-12-31T09:37:48;28.33;;;19.63;;
15699;SDS011;7950;42.744;23.174;2022-12-31T09:43:39;29.33;;;22.27;;
15699;SDS011;7950;42.744;23.174;2022-12-31T09:46:43;31.43;;;22.77;;
15699;SDS011;7950;42.744;23.174;2022-12-31T09:49:48;30.83;;;23.83;;
15699;SDS011;7950;42.744;23.174;2022-12-31T09:53:00;32.40;;;23.03;;
15699;SDS011;7950;42.744;23.174;2022-12-31T09:55:47;29.93;;;21.80;;
15699;SDS011;7950;42.744;23.174;2022-12-31T09:58:23;30.87;;;21.97;;
15699;SDS011;7950;42.744;23.174;2022-12-31T10:01:00;22.43;;;19.03;;
15699;SDS011;7950;42.744;23.174;2022-12-31T10:03:41;28.00;;;19.23;;
15699;SDS011;7950;42.744;23.174;2022-12-31T10:06:44;27.83;;;20.10;;
15699;SDS011;7950;42.744;23.174;2022-12-31T10:09:33;44.37;;;25.73;;
15699;SDS011;7950;42.744;23.174;2022-12-31T10:12:28;28.67;;;20.43;;
15699;SDS011;7950;42.744;23.174;2022-12-31T10:18:23;24.67;;;18.60;;
15699;SDS011;7950;42.744;23.174;2022-12-31T10:21:05;24.77;;;17.73;;
15699;SDS011;7950;42.744;23.174;2022-12-31T10:23:49;22.50;;;17.73;;
15699;SDS011;7950;42.744;23.174;2022-12-31T10:29:47;26.83;;;19.13;;
15699;SDS011;7950;42.744;23.174;2022-12-31T10:32:27;28.47;;;20.17;;
15699;SDS011;7950;42.744;23.174;2022-12-31T10:38:05;26.53;;;19.27;;
15699;SDS011;7950;42.744;23.174;2022-12-31T10:46:57;26.53;;;18.87;;
15699;SDS011;7950;42.744;23.174;2022-12-31T10:49:55;24.17;;;17.40;;
15699;SDS011;7950;42.744;23.174;2022-12-31T10:52:58;24.90;;;17.60;;
15699;SDS011;7950;42.744;23.174;2022-12-31T10:55:55;27.30;;;19.53;;
15699;SDS011;7950;42.744;23.174;2022-12-31T10:58:44;25.80;;;18.27;;
15699;SDS011;7950;42.744;23.174;2022-12-31T11:01:54;26.17;;;18.27;;
15699;SDS011;7950;42.744;23.174;2022-12-31T11:08:09;24.13;;;16.47;;
15699;SDS011;7950;42.744;23.174;2022-12-31T11:10:55;23.10;;;17.27;;
15699;SDS011;7950;42.744;23.174;2022-12-31T11:16:56;22.30;;;17.10;;
15699;SDS011;7950;42.744;23.174;2022-12-31T11:19:42;22.07;;;16.90;;
15699;SDS011;7950;42.744;23.174;2022-12-31T11:22:24;22.83;;;16.67;;
15699;SDS011;7950;42.744;23.174;2022-12-31T11:25:21;19.90;;;15.83;;
15699;SDS011;7950;42.744;23.174;2022-12-31T11:31:00;23.93;;;17.33;;
15699;SDS011;7950;42.744;23.174;2022-12-31T11:33:50;25.33;;;17.30;;
15699;SDS011;7950;42.744;23.174;2022-12-31T11:36:39;20.13;;;15.53;;
15699;SDS011;7950;42.744;23.174;2022-12-31T11:39:22;24.93;;;16.40;;
15699;SDS011;7950;42.744;23.174;2022-12-31T11:42:02;21.40;;;16.37;;
15699;SDS011;7950;42.744;23.174;2022-12-31T11:44:43;22.00;;;16.10;;
15699;SDS011;7950;42.744;23.174;2022-12-31T11:47:22;21.07;;;15.60;;
15699;SDS011;7950;42.744;23.174;2022-12-31T11:53:48;21.60;;;15.73;;
15699;SDS011;7950;42.744;23.174;2022-12-31T11:56:32;21.40;;;16.00;;
15699;SDS011;7950;42.744;23.174;2022-12-31T11:59:06;19.83;;;15.73;;
15699;SDS011;7950;42.744;23.174;2022-12-31T12:01:51;21.83;;;16.03;;
15699;SDS011;7950;42.744;23.174;2022-12-31T12:04:25;21.00;;;15.77;;
15699;SDS011;7950;42.744;23.174;2022-12-31T12:06:55;21.50;;;16.03;;
15699;SDS011;7950;42.744;23.174;2022-12-31T12:09:26;22.03;;;16.77;;
15699;SDS011;7950;42.744;23.174;2022-12-31T12:11:57;18.50;;;14.97;;
15699;SDS011;7950;42.744;23.174;2022-12-31T12:14:29;24.47;;;16.13;;
15699;SDS011;7950;42.744;23.174;2022-12-31T12:16:59;19.00;;;15.10;;
15699;SDS011;7950;42.744;23.174;2022-12-31T12:19:31;19.60;;;15.80;;
15699;SDS011;7950;42.744;23.174;2022-12-31T12:22:09;21.43;;;15.70;;
15699;SDS011;7950;42.744;23.174;2022-12-31T12:24:50;23.07;;;15.43;;
15699;SDS011;7950;42.744;23.174;2022-12-31T12:27:21;18.80;;;14.23;;
15699;SDS011;7950;42.744;23.174;2022-12-31T12:29:50;19.27;;;13.77;;
15699;SDS011;7950;42.744;23.174;2022-12-31T12:32:19;20.13;;;14.37;;
15699;SDS011;7950;42.744;23.174;2022-12-31T12:34:50;19.63;;;14.13;;
15699;SDS011;7950;42.744;23.174;2022-12-31T12:40:05;18.23;;;13.00;;
15699;SDS011;7950;42.744;23.174;2022-12-31T12:42:45;16.63;;;12.57;;
15699;SDS011;7950;42.744;23.174;2022-12-31T12:45:17;17.33;;;12.90;;
15699;SDS011;7950;42.744;23.174;2022-12-31T12:47:48;20.53;;;12.90;;
15699;SDS011;7950;42.744;23.174;2022-12-31T12:50:22;16.10;;;11.83;;
15699;SDS011;7950;42.744;23.174;2022-12-31T12:53:04;18.90;;;13.10;;
15699;SDS011;7950;42.744;23.174;2022-12-31T12:55:45;17.10;;;13.53;;
15699;SDS011;7950;42.744;23.174;2022-12-31T12:58:30;15.33;;;11.67;;
15699;SDS011;7950;42.744;23.174;2022-12-31T13:01:09;14.70;;;11.47;;
15699;SDS011;7950;42.744;23.174;2022-12-31T13:04:14;15.57;;;12.80;;
15699;SDS011;7950;42.744;23.174;2022-12-31T13:10:04;16.07;;;11.80;;
15699;SDS011;7950;42.744;23.174;2022-12-31T13:12:45;15.70;;;11.40;;
15699;SDS011;7950;42.744;23.174;2022-12-31T13:15:39;14.33;;;10.47;;
15699;SDS011;7950;42.744;23.174;2022-12-31T13:18:16;12.83;;;9.53;;
15699;SDS011;7950;42.744;23.174;2022-12-31T13:20:56;15.40;;;9.40;;
15699;SDS011;7950;42.744;23.174;2022-12-31T13:23:31;12.67;;;10.27;;
15699;SDS011;7950;42.744;23.174;2022-12-31T13:26:10;15.10;;;10.70;;
15699;SDS011;7950;42.744;23.174;2022-12-31T13:28:44;12.10;;;10.17;;
15699;SDS011;7950;42.744;23.174;2022-12-31T13:31:16;12.17;;;9.33;;
15699;SDS011;7950;42.744;23.174;2022-12-31T13:33:54;15.27;;;13.40;;
15699;SDS011;7950;42.744;23.174;2022-12-31T13:36:26;14.67;;;10.13;;
15699;SDS011;7950;42.744;23.174;2022-12-31T13:38:58;12.53;;;10.20;;
15699;SDS011;7950;42.744;23.174;2022-12-31T13:41:31;13.10;;;9.30;;
15699;SDS011;7950;42.744;23.174;2022-12-31T13:44:08;11.77;;;8.70;;
15699;SDS011;7950;42.744;23.174;2022-12-31T13:46:43;13.70;;;11.30;;
15699;SDS011;7950;42.744;23.174;2022-12-31T13:49:15;12.47;;;9.67;;
15699;SDS011;7950;42.744;23.174;2022-12-31T13:51:51;14.87;;;11.83;;
15699;SDS011;7950;42.744;23.174;2022-12-31T13:54:29;16.53;;;14.30;;
15699;SDS011;7950;42.744;23.174;2022-12-31T13:57:08;14.97;;;12.17;;
15699;SDS011;7950;42.744;23.174;2022-12-31T13:59:42;13.40;;;10.47;;
15699;SDS011;7950;42.744;23.174;2022-12-31T14:02:24;17.43;;;15.60;;
15699;SDS011;7950;42.744;23.174;2022-12-31T14:05:00;14.53;;;9.97;;
15699;SDS011;7950;42.744;23.174;2022-12-31T14:07:34;12.87;;;8.70;;
15699;SDS011;7950;42.744;23.174;2022-12-31T14:10:11;11.17;;;9.63;;
15699;SDS011;7950;42.744;23.174;2022-12-31T14:12:45;15.30;;;11.00;;
15699;SDS011;7950;42.744;23.174;2022-12-31T14:15:21;14.03;;;11.07;;
15699;SDS011;7950;42.744;23.174;2022-12-31T14:17:57;12.57;;;9.43;;
15699;SDS011;7950;42.744;23.174;2022-12-31T14:23:30;10.80;;;8.37;;
15699;SDS011;7950;42.744;23.174;2022-12-31T14:26:08;9.67;;;8.13;;
15699;SDS011;7950;42.744;23.174;2022-12-31T14:28:48;9.13;;;7.50;;
15699;SDS011;7950;42.744;23.174;2022-12-31T14:31:28;11.30;;;8.03;;
15699;SDS011;7950;42.744;23.174;2022-12-31T14:34:07;9.07;;;8.17;;
15699;SDS011;7950;42.744;23.174;2022-12-31T14:36:47;9.07;;;7.90;;
15699;SDS011;7950;42.744;23.174;2022-12-31T14:39:32;14.67;;;12.50;;
15699;SDS011;7950;42.744;23.174;2022-12-31T14:42:14;25.33;;;21.50;;
15699;SDS011;7950;42.744;23.174;2022-12-31T14:45:01;14.03;;;11.43;;
15699;SDS011;7950;42.744;23.174;2022-12-31T14:47:45;11.97;;;9.40;;
15699;SDS011;7950;42.744;23.174;2022-12-31T14:50:20;13.10;;;10.47;;
15699;SDS011;7950;42.744;23.174;2022-12-31T14:52:52;13.07;;;10.23;;
15699;SDS011;7950;42.744;23.174;2022-12-31T14:55:23;16.03;;;13.63;;
15699;SDS011;7950;42.744;23.174;2022-12-31T14:57:54;37.37;;;23.97;;
15699;SDS011;7950;42.744;23.174;2022-12-31T15:01:05;35.37;;;22.40;;
15699;SDS011;7950;42.744;23.174;2022-12-31T15:03:48;22.27;;;15.40;;
15699;SDS011;7950;42.744;23.174;2022-12-31T15:06:32;15.17;;;12.17;;
15699;SDS011;7950;42.744;23.174;2022-12-31T15:09:15;15.07;;;10.70;;
15699;SDS011;7950;42.744;23.174;2022-12-31T15:11:58;12.00;;;8.90;;
15699;SDS011;7950;42.744;23.174;2022-12-31T15:14:48;13.07;;;9.57;;
15699;SDS011;7950;42.744;23.174;2022-12-31T15:17:39;11.20;;;8.37;;
15699;SDS011;7950;42.744;23.174;2022-12-31T15:23:26;14.07;;;8.97;;
15699;SDS011;7950;42.744;23.174;2022-12-31T15:26:01;12.80;;;8.67;;
15699;SDS011;7950;42.744;23.174;2022-12-31T15:28:32;11.10;;;8.67;;
15699;SDS011;7950;42.744;23.174;2022-12-31T15:31:06;13.10;;;8.20;;
15699;SDS011;7950;42.744;23.174;2022-12-31T15:33:59;10.13;;;8.33;;
15699;SDS011;7950;42.744;23.174;2022-12-31T15:36:30;9.60;;;7.40;;
15699;SDS011;7950;42.744;23.174;2022-12-31T15:45:06;17.53;;;12.30;;
15699;SDS011;7950;42.744;23.174;2022-12-31T15:47:44;17.20;;;12.23;;
15699;SDS011;7950;42.744;23.174;2022-12-31T15:50:17;14.10;;;12.37;;
15699;SDS011;7950;42.744;23.174;2022-12-31T15:53:33;17.33;;;11.87;;
15699;SDS011;7950;42.744;23.174;2022-12-31T15:56:06;11.63;;;8.73;;
15699;SDS011;7950;42.744;23.174;2022-12-31T15:58:44;10.00;;;8.33;;
15699;SDS011;7950;42.744;23.174;2022-12-31T16:01:14;10.20;;;7.47;;
15699;SDS011;7950;42.744;23.174;2022-12-31T16:03:48;9.97;;;9.00;;
15699;SDS011;7950;42.744;23.174;2022-12-31T16:06:23;8.67;;;7.60;;
15699;SDS011;7950;42.744;23.174;2022-12-31T16:08:54;13.60;;;9.03;;
15699;SDS011;7950;42.744;23.174;2022-12-31T16:11:24;13.43;;;8.77;;
15699;SDS011;7950;42.744;23.174;2022-12-31T16:13:56;10.10;;;8.50;;
15699;SDS011;7950;42.744;23.174;2022-12-31T16:16:26;13.90;;;10.87;;
15699;SDS011;7950;42.744;23.174;2022-12-31T16:18:57;13.40;;;9.80;;
15699;SDS011;7950;42.744;23.174;2022-12-31T16:21:29;12.37;;;8.53;;
15699;SDS011;7950;42.744;23.174;2022-12-31T16:24:02;12.67;;;8.50;;
15699;SDS011;7950;42.744;23.174;2022-12-31T16:26:33;11.47;;;8.20;;
15699;SDS011;7950;42.744;23.174;2022-12-31T16:29:05;12.37;;;8.77;;
15699;SDS011;7950;42.744;23.174;2022-12-31T16:31:50;11.43;;;8.80;;
15699;SDS011;7950;42.744;23.174;2022-12-31T16:34:21;16.37;;;11.07;;
15699;SDS011;7950;42.744;23.174;2022-12-31T16:36:56;12.90;;;9.10;;
15699;SDS011;7950;42.744;23.174;2022-12-31T16:39:27;19.00;;;12.13;;
15699;SDS011;7950;42.744;23.174;2022-12-31T16:44:55;22.23;;;13.80;;
15699;SDS011;7950;42.744;23.174;2022-12-31T16:47:25;17.10;;;10.80;;
15699;SDS011;7950;42.744;23.174;2022-12-31T16:50:00;19.73;;;14.07;;
15699;SDS011;7950;42.744;23.174;2022-12-31T16:52:36;13.67;;;9.97;;
15699;SDS011;7950;42.744;23.174;2022-12-31T16:55:07;32.37;;;18.07;;
15699;SDS011;7950;42.744;23.174;2022-12-31T17:00:54;12.57;;;8.93;;
15699;SDS011;7950;42.744;23.174;2022-12-31T17:03:30;35.03;;;20.50;;
15699;SDS011;7950;42.744;23.174;2022-12-31T17:06:02;26.23;;;15.43;;